Airport ID:KSMD
Update Time (UTC):27/01/2020 03:44
Wind Speed (Knots):8
Wind Direction (Magnetic):260
Temperature (°C):-0.6
Dew Point (°C):-0.8
Humidity (%):98.6
Altimeter (inHg):29.89
Density Altitude (Feet):
Visibility (Miles):10
Clouds (Hundreds of feet):OVC011
Present Weather:
METAR:METAR KSMD 270340Z AUTO 26006KT 9SM OVC012 M01/M01 A2989 RMK A01

The data displayed is for advisory purposes only and is not to be used for flight planning or operations.

This page is not automatically refreshed. Reload the page to see current data.